createdAt,value
2023-05-19T00:02:26.283Z,7.72
2023-05-19T00:04:55.103Z,7.00
2023-05-19T00:07:29.101Z,7.28
2023-05-19T00:09:57.988Z,7.10
2023-05-19T00:12:27.005Z,7.43
2023-05-19T00:14:55.637Z,7.68
2023-05-19T00:17:26.364Z,6.72
2023-05-19T00:19:54.760Z,7.32
2023-05-19T00:22:22.952Z,6.80
2023-05-19T00:24:51.674Z,6.95
2023-05-19T00:27:20.136Z,6.72
2023-05-19T00:29:48.542Z,7.07
2023-05-19T00:32:17.024Z,6.60
2023-05-19T00:34:48.614Z,7.03
2023-05-19T00:37:18.420Z,6.68
2023-05-19T00:39:46.947Z,7.00
2023-05-19T00:42:15.722Z,6.80
2023-05-19T00:44:44.065Z,6.75
2023-05-19T00:47:12.332Z,6.93
2023-05-19T00:49:41.094Z,7.40
2023-05-19T00:52:11.639Z,7.38
2023-05-19T00:54:40.437Z,6.70
2023-05-19T00:57:08.872Z,7.13
2023-05-19T00:59:37.474Z,7.65
2023-05-19T01:02:06.874Z,6.80
2023-05-19T01:04:39.511Z,7.28
2023-05-19T01:07:08.369Z,7.03
2023-05-19T01:09:38.490Z,7.20
2023-05-19T01:12:10.246Z,7.40
2023-05-19T01:14:39.032Z,6.93
2023-05-19T01:17:11.910Z,7.00
2023-05-19T01:19:56.489Z,7.10
2023-05-19T01:22:42.827Z,7.15
2023-05-19T01:25:43.931Z,7.63
2023-05-19T01:28:54.225Z,6.65
2023-05-19T01:31:25.600Z,6.38
2023-05-19T01:33:55.833Z,6.63
2023-05-19T01:36:27.054Z,6.55
2023-05-19T01:41:26.273Z,7.03
2023-05-19T01:43:54.876Z,7.10
2023-05-19T01:46:25.668Z,6.60
2023-05-19T01:51:23.124Z,7.43
2023-05-19T01:53:51.483Z,6.88
2023-05-19T01:56:28.569Z,6.93
2023-05-19T01:59:05.511Z,7.53
2023-05-19T02:01:46.044Z,7.32
2023-05-19T02:04:22.411Z,7.43
2023-05-19T02:06:59.794Z,6.93
2023-05-19T02:09:35.939Z,7.28
2023-05-19T02:12:10.360Z,6.78
2023-05-19T02:14:42.864Z,6.88
2023-05-19T02:17:15.619Z,6.45
2023-05-19T02:19:45.119Z,7.18
2023-05-19T02:22:14.009Z,7.13
2023-05-19T02:24:44.368Z,6.95
2023-05-19T02:27:13.323Z,6.30
2023-05-19T02:29:41.959Z,7.32
2023-05-19T02:32:12.545Z,6.88
2023-05-19T02:34:42.222Z,6.85
2023-05-19T02:37:10.686Z,6.70
2023-05-19T02:39:38.983Z,7.70
2023-05-19T02:42:07.714Z,8.55
2023-05-19T02:44:36.115Z,8.40
2023-05-19T02:47:04.566Z,7.10
2023-05-19T02:49:36.057Z,7.43
2023-05-19T02:52:04.897Z,7.05
2023-05-19T02:54:33.777Z,6.85
2023-05-19T02:57:03.147Z,7.38
2023-05-19T02:59:31.632Z,6.70
2023-05-19T03:02:01.609Z,6.90
2023-05-19T03:04:30.311Z,7.20
2023-05-19T03:07:00.182Z,7.03
2023-05-19T03:09:28.573Z,7.90
2023-05-19T03:11:56.855Z,6.82
2023-05-19T03:14:25.227Z,7.65
2023-05-19T03:16:53.804Z,7.38
2023-05-19T03:19:22.502Z,7.10
2023-05-19T03:21:51.583Z,7.50
2023-05-19T03:24:21.327Z,6.80
2023-05-19T03:26:50.346Z,7.03
2023-05-19T03:29:18.623Z,7.30
2023-05-19T03:31:47.560Z,6.72
2023-05-19T03:34:18.052Z,6.65
2023-05-19T03:36:46.400Z,7.05
2023-05-19T03:39:17.570Z,6.63
2023-05-19T03:41:49.855Z,6.90
2023-05-19T03:44:18.254Z,7.22
2023-05-19T03:46:46.598Z,7.95
2023-05-19T03:49:31.700Z,7.57
2023-05-19T03:52:38.907Z,7.10
2023-05-19T03:55:46.550Z,7.97
2023-05-19T03:58:16.721Z,6.68
2023-05-19T04:00:45.541Z,7.40
2023-05-19T04:03:14.998Z,7.40
2023-05-19T04:05:43.647Z,7.20
2023-05-19T04:08:12.172Z,8.13
2023-05-19T04:10:42.036Z,8.60
2023-05-19T04:13:11.433Z,7.53
2023-05-19T04:15:41.539Z,8.10
2023-05-19T04:18:10.904Z,7.72
2023-05-19T04:20:42.211Z,7.47
2023-05-19T04:23:10.936Z,7.80
2023-05-19T04:25:40.934Z,7.30
2023-05-19T04:28:09.600Z,7.85
2023-05-19T04:30:39.941Z,7.97
2023-05-19T04:33:09.274Z,8.13
2023-05-19T04:35:38.179Z,7.97
2023-05-19T04:38:07.858Z,7.53
2023-05-19T04:40:37.204Z,8.48
2023-05-19T04:43:07.497Z,8.45
2023-05-19T04:45:37.614Z,8.00
2023-05-19T04:48:12.128Z,7.75
2023-05-19T04:50:42.190Z,9.60
2023-05-19T04:53:11.450Z,9.73
2023-05-19T04:55:40.373Z,7.88
2023-05-19T04:58:09.084Z,8.18
2023-05-19T05:00:38.791Z,7.70
2023-05-19T05:03:10.613Z,7.20
2023-05-19T05:05:40.466Z,8.02
2023-05-19T05:08:11.235Z,8.82
2023-05-19T05:10:44.322Z,8.70
2023-05-19T05:13:13.182Z,8.80
2023-05-19T05:15:42.634Z,7.82
2023-05-19T05:18:15.289Z,8.35
2023-05-19T05:20:46.564Z,8.20
2023-05-19T05:23:16.736Z,7.95
2023-05-19T05:25:48.984Z,8.07
2023-05-19T05:28:18.569Z,9.02
2023-05-19T05:30:49.246Z,9.15
2023-05-19T05:33:19.548Z,8.97
2023-05-19T05:35:48.206Z,7.80
2023-05-19T05:38:16.592Z,8.98
2023-05-19T05:40:44.978Z,8.90
2023-05-19T05:43:13.553Z,8.20
2023-05-19T05:46:03.838Z,8.95
2023-05-19T05:48:34.784Z,8.05
2023-05-19T05:53:40.638Z,8.35
2023-05-19T05:56:11.676Z,9.20
2023-05-19T05:58:47.570Z,9.40
2023-05-19T06:01:18.116Z,8.98
2023-05-19T06:03:48.034Z,9.02
2023-05-19T06:06:21.937Z,8.80
2023-05-19T06:08:50.629Z,8.70
2023-05-19T06:11:19.989Z,9.00
2023-05-19T06:13:49.391Z,8.75
2023-05-19T06:16:33.790Z,8.55
2023-05-19T06:19:03.789Z,7.88
2023-05-19T06:21:32.591Z,8.70
2023-05-19T06:24:01.301Z,9.23
2023-05-19T06:26:29.651Z,9.32
2023-05-19T06:28:58.612Z,8.63
2023-05-19T06:31:28.038Z,9.60
2023-05-19T06:33:59.698Z,8.15
2023-05-19T06:36:29.813Z,8.30
2023-05-19T06:39:01.214Z,9.38
2023-05-19T06:41:32.847Z,8.40
2023-05-19T06:44:01.960Z,8.25
2023-05-19T06:46:34.533Z,8.73
2023-05-19T06:49:03.648Z,8.93
2023-05-19T06:51:37.529Z,8.75
2023-05-19T06:54:06.784Z,9.25
2023-05-19T06:56:35.113Z,8.80
2023-05-19T06:59:04.971Z,8.68
2023-05-19T07:01:38.768Z,9.13
2023-05-19T07:04:07.486Z,8.52
2023-05-19T07:06:37.566Z,8.90
2023-05-19T07:09:06.861Z,8.55
2023-05-19T07:11:37.148Z,8.35
2023-05-19T07:14:07.474Z,9.30
2023-05-19T07:16:35.865Z,8.13
2023-05-19T07:19:04.630Z,8.65
2023-05-19T07:21:34.228Z,8.27
2023-05-19T07:24:04.894Z,8.38
2023-05-19T07:26:33.332Z,8.15
2023-05-19T07:29:02.052Z,8.77
2023-05-19T07:31:30.547Z,8.63
2023-05-19T07:34:00.376Z,8.40
2023-05-19T07:36:29.112Z,8.93
2023-05-19T07:38:57.413Z,9.45
2023-05-19T07:41:27.705Z,9.90
2023-05-19T07:43:56.170Z,9.65
2023-05-19T07:46:25.043Z,10.68
2023-05-19T07:48:53.673Z,8.43
2023-05-19T07:51:22.312Z,8.63
2023-05-19T07:53:51.389Z,8.65
2023-05-19T07:56:20.292Z,9.40
2023-05-19T07:58:49.890Z,9.10
2023-05-19T08:01:18.470Z,9.00
2023-05-19T08:03:47.068Z,8.82
2023-05-19T08:06:15.879Z,10.00
2023-05-19T08:08:44.355Z,8.80
2023-05-19T08:11:12.697Z,8.95
2023-05-19T08:13:41.383Z,8.82
2023-05-19T08:16:11.230Z,8.57
2023-05-19T08:18:39.683Z,8.63
2023-05-19T08:21:08.182Z,8.70
2023-05-19T08:23:37.443Z,8.77
2023-05-19T08:26:06.188Z,9.10
2023-05-19T08:28:35.768Z,8.37
2023-05-19T08:31:04.241Z,9.82
2023-05-19T08:33:34.191Z,9.48
2023-05-19T08:36:02.681Z,8.25
2023-05-19T08:38:31.594Z,8.20
2023-05-19T08:41:00.147Z,8.55
2023-05-19T08:43:28.990Z,8.02
2023-05-19T08:45:57.603Z,8.50
2023-05-19T08:48:26.478Z,9.82
2023-05-19T08:51:08.409Z,9.13
2023-05-19T08:53:41.455Z,11.30
2023-05-19T08:56:14.300Z,13.68
2023-05-19T08:58:44.267Z,9.55
2023-05-19T09:01:16.863Z,8.50
2023-05-19T09:03:46.381Z,11.88
2023-05-19T09:06:17.045Z,8.65
2023-05-19T09:11:14.548Z,10.07
2023-05-19T09:13:43.863Z,8.20
2023-05-19T09:16:13.316Z,12.57
2023-05-19T09:18:56.063Z,8.70
2023-05-19T09:21:31.553Z,11.57
2023-05-19T09:24:05.017Z,8.77
2023-05-19T09:26:38.543Z,10.85
2023-05-19T09:29:14.024Z,8.13
2023-05-19T09:31:50.471Z,8.57
2023-05-19T09:34:19.500Z,13.15
2023-05-19T09:36:50.810Z,8.93
2023-05-19T09:39:20.366Z,8.23
2023-05-19T09:41:52.406Z,7.80
2023-05-19T09:44:24.592Z,7.90
2023-05-19T09:46:54.015Z,8.10
2023-05-19T09:49:22.814Z,17.35
2023-05-19T09:51:55.558Z,9.65
2023-05-19T09:54:24.817Z,10.15
2023-05-19T09:56:58.615Z,13.75
2023-05-19T09:59:30.465Z,9.02
2023-05-19T10:02:01.608Z,7.85
2023-05-19T10:04:31.540Z,8.38
2023-05-19T10:07:05.822Z,8.20
2023-05-19T10:09:36.189Z,7.80
2023-05-19T10:12:05.655Z,8.13
2023-05-19T10:14:33.938Z,8.38
2023-05-19T10:17:02.807Z,8.45
2023-05-19T10:19:31.280Z,8.40
2023-05-19T10:22:01.229Z,8.90
2023-05-19T10:24:43.866Z,8.32
2023-05-19T10:27:20.560Z,9.85
2023-05-19T10:29:51.966Z,11.18
2023-05-19T10:32:24.597Z,11.35
2023-05-19T10:35:19.053Z,9.23
2023-05-19T10:38:00.895Z,9.38
2023-05-19T10:40:37.270Z,8.90
2023-05-19T10:43:23.047Z,13.75
2023-05-19T10:45:54.384Z,9.20
2023-05-19T10:48:23.251Z,9.20
2023-05-19T10:50:55.688Z,9.13
2023-05-19T10:53:32.643Z,9.60
2023-05-19T10:56:04.256Z,9.32
2023-05-19T10:58:52.459Z,9.27
2023-05-19T11:01:22.311Z,9.27
2023-05-19T11:03:54.019Z,9.32
2023-05-19T11:06:27.222Z,8.82
2023-05-19T11:09:00.743Z,9.85
2023-05-19T11:11:45.774Z,9.20
2023-05-19T11:14:15.597Z,9.68
2023-05-19T11:16:45.804Z,9.52
2023-05-19T11:19:20.544Z,9.77
2023-05-19T11:21:50.594Z,9.85
2023-05-19T11:24:40.191Z,9.55
2023-05-19T11:27:22.212Z,9.63
2023-05-19T11:29:51.775Z,9.57
2023-05-19T11:32:22.725Z,9.38
2023-05-19T11:34:52.529Z,9.73
2023-05-19T11:37:21.066Z,9.60
2023-05-19T11:39:50.990Z,9.43
2023-05-19T11:42:20.715Z,9.07
2023-05-19T11:44:50.017Z,9.93
2023-05-19T11:47:18.713Z,10.10
2023-05-19T11:49:49.578Z,10.15
2023-05-19T11:52:18.750Z,9.82
2023-05-19T11:54:51.241Z,10.68
2023-05-19T11:57:21.095Z,12.98
2023-05-19T11:59:52.256Z,10.77
2023-05-19T12:02:22.473Z,9.98
2023-05-19T12:04:51.465Z,10.07
2023-05-19T12:07:23.095Z,10.60
2023-05-19T12:09:53.928Z,17.80
2023-05-19T12:12:23.965Z,13.60
2023-05-19T12:14:53.600Z,11.18
2023-05-19T12:17:24.402Z,10.32
2023-05-19T12:22:21.595Z,9.93
2023-05-19T12:24:52.671Z,10.13
2023-05-19T12:27:22.527Z,10.35
2023-05-19T12:29:54.760Z,10.90
2023-05-19T12:32:25.683Z,10.10
2023-05-19T12:34:54.897Z,10.60
2023-05-19T12:37:27.861Z,10.35
2023-05-19T12:39:58.530Z,11.70
2023-05-19T12:45:03.139Z,10.25
2023-05-19T12:47:45.300Z,10.50
2023-05-19T12:50:14.757Z,10.50
2023-05-19T12:52:44.771Z,10.90
2023-05-19T12:55:17.741Z,10.50
2023-05-19T12:57:50.686Z,10.70
2023-05-19T13:00:21.203Z,22.58
2023-05-19T13:02:59.785Z,13.45
2023-05-19T13:05:29.376Z,13.57
2023-05-19T13:07:59.372Z,11.02
2023-05-19T13:10:31.452Z,10.75
2023-05-19T13:13:01.300Z,10.43
2023-05-19T13:15:32.100Z,10.65
2023-05-19T13:18:02.413Z,9.93
2023-05-19T13:20:31.846Z,11.27
2023-05-19T13:23:00.771Z,9.95
2023-05-19T13:25:36.067Z,10.40
2023-05-19T13:28:06.079Z,10.95
2023-05-19T13:30:35.799Z,10.05
2023-05-19T13:33:07.876Z,9.80
2023-05-19T13:35:38.391Z,9.38
2023-05-19T13:38:09.667Z,10.13
2023-05-19T13:40:46.087Z,9.70
2023-05-19T13:43:14.601Z,10.55
2023-05-19T13:45:44.761Z,10.52
2023-05-19T13:48:13.224Z,10.43
2023-05-19T13:50:41.790Z,11.25
2023-05-19T13:53:11.430Z,11.63
2023-05-19T13:55:41.768Z,10.35
2023-05-19T13:58:11.061Z,9.90
2023-05-19T14:00:39.793Z,9.60
2023-05-19T14:03:08.582Z,11.95
2023-05-19T14:05:37.609Z,10.38
2023-05-19T14:08:09.187Z,9.45
2023-05-19T14:10:37.985Z,9.57
2023-05-19T14:15:42.440Z,10.15
2023-05-19T14:18:11.122Z,10.25
2023-05-19T14:20:40.650Z,10.13
2023-05-19T14:23:09.035Z,9.27
2023-05-19T14:25:37.460Z,10.60
2023-05-19T14:28:07.562Z,9.85
2023-05-19T14:30:36.395Z,8.88
2023-05-19T14:33:05.315Z,9.40
2023-05-19T14:35:33.797Z,10.00
2023-05-19T14:38:02.797Z,9.98
2023-05-19T14:40:31.482Z,10.10
2023-05-19T14:43:01.235Z,11.18
2023-05-19T14:45:31.106Z,9.93
2023-05-19T14:48:00.237Z,10.55
2023-05-19T14:50:29.401Z,10.45
2023-05-19T14:52:58.286Z,10.40
2023-05-19T14:55:26.636Z,9.80
2023-05-19T14:57:57.039Z,9.95
2023-05-19T15:00:26.276Z,10.30
2023-05-19T15:02:56.751Z,10.57
2023-05-19T15:05:25.187Z,10.02
2023-05-19T15:07:53.994Z,10.30
2023-05-19T15:10:22.798Z,10.48
2023-05-19T15:12:51.343Z,9.98
2023-05-19T15:15:20.396Z,10.80
2023-05-19T15:17:48.798Z,10.55
2023-05-19T15:20:19.012Z,9.90
2023-05-19T15:22:47.351Z,10.07
2023-05-19T15:25:15.775Z,16.40
2023-05-19T15:27:44.255Z,10.63
2023-05-19T15:30:13.943Z,10.35
2023-05-19T15:32:42.449Z,9.48
2023-05-19T15:35:12.662Z,9.45
2023-05-19T15:40:13.840Z,9.95
2023-05-19T15:42:43.839Z,9.67
2023-05-19T15:45:18.524Z,10.68
2023-05-19T15:47:49.288Z,9.50
2023-05-19T15:50:20.397Z,9.55
2023-05-19T15:52:51.328Z,10.50
2023-05-19T15:55:21.019Z,10.07
2023-05-19T15:57:49.862Z,9.32
2023-05-19T16:00:18.302Z,9.48
2023-05-19T16:02:47.556Z,9.68
2023-05-19T16:05:17.525Z,10.18
2023-05-19T16:07:46.828Z,9.95
2023-05-19T16:10:21.740Z,13.02
2023-05-19T16:12:51.367Z,10.75
2023-05-19T16:15:24.368Z,9.07
2023-05-19T16:17:57.325Z,9.05
2023-05-19T16:20:31.703Z,9.13
2023-05-19T16:23:00.655Z,9.25
2023-05-19T16:25:31.487Z,9.20
2023-05-19T16:28:00.921Z,9.32
2023-05-19T16:30:30.122Z,9.70
2023-05-19T16:32:59.545Z,9.52
2023-05-19T16:35:29.788Z,9.13
2023-05-19T16:37:59.690Z,7.72
2023-05-19T16:40:31.123Z,9.02
2023-05-19T16:43:00.576Z,9.15
2023-05-19T16:45:29.616Z,8.65
2023-05-19T16:47:58.253Z,9.35
2023-05-19T16:50:27.644Z,9.55
2023-05-19T16:52:56.122Z,8.68
2023-05-19T16:55:25.374Z,9.27
2023-05-19T16:57:55.182Z,9.65
2023-05-19T17:00:23.696Z,9.13
2023-05-19T17:02:52.204Z,9.48
2023-05-19T17:05:20.571Z,9.73
2023-05-19T17:07:48.968Z,9.50
2023-05-19T17:10:18.515Z,8.65
2023-05-19T17:12:46.960Z,9.52
2023-05-19T17:15:16.785Z,17.63
2023-05-19T17:17:45.401Z,10.63
2023-05-19T17:20:14.505Z,12.63
2023-05-19T17:22:42.914Z,9.05
2023-05-19T17:25:11.713Z,8.60
2023-05-19T17:27:40.203Z,8.85
2023-05-19T17:30:10.015Z,8.73
2023-05-19T17:32:47.149Z,8.57
2023-05-19T17:35:16.008Z,8.32
2023-05-19T17:37:44.559Z,8.00
2023-05-19T17:40:13.736Z,8.00
2023-05-19T17:42:42.130Z,7.57
2023-05-19T17:45:12.496Z,8.10
2023-05-19T17:47:52.662Z,7.85
2023-05-19T17:50:48.031Z,7.07
2023-05-19T17:53:30.276Z,7.72
2023-05-19T17:56:01.430Z,7.82
2023-05-19T17:58:30.554Z,7.43
2023-05-19T18:00:59.337Z,7.22
2023-05-19T18:03:29.914Z,8.05
2023-05-19T18:05:59.171Z,8.27
2023-05-19T18:08:28.915Z,8.25
2023-05-19T18:10:59.714Z,7.90
2023-05-19T18:13:29.059Z,7.32
2023-05-19T18:15:59.641Z,9.35
2023-05-19T18:18:29.598Z,12.52
2023-05-19T18:20:58.496Z,10.52
2023-05-19T18:23:27.015Z,9.05
2023-05-19T18:25:55.874Z,9.02
2023-05-19T18:28:24.470Z,8.23
2023-05-19T18:31:00.943Z,56.53
2023-05-19T18:33:31.689Z,88.40
2023-05-19T18:38:28.725Z,17.95
2023-05-19T18:40:57.782Z,14.43
2023-05-19T18:43:26.147Z,11.95
2023-05-19T18:45:54.571Z,9.50
2023-05-19T18:48:23.215Z,8.65
2023-05-19T18:50:53.139Z,9.45
2023-05-19T18:53:22.687Z,68.47
2023-05-19T18:55:51.257Z,121.47
2023-05-19T18:58:19.688Z,79.53
2023-05-19T19:00:51.514Z,36.45
2023-05-19T19:03:19.861Z,15.40
2023-05-19T19:05:56.390Z,8.18
2023-05-19T19:08:27.434Z,7.63
2023-05-19T19:11:00.209Z,7.88
2023-05-19T19:13:29.710Z,8.13
2023-05-19T19:15:58.177Z,7.88
2023-05-19T19:18:27.077Z,8.27
2023-05-19T19:20:57.379Z,8.10
2023-05-19T19:23:26.062Z,16.20
2023-05-19T19:25:56.060Z,11.60
2023-05-19T19:28:24.447Z,11.43
2023-05-19T19:30:52.921Z,10.02
2023-05-19T19:33:21.384Z,9.07
2023-05-19T19:35:49.807Z,9.25
2023-05-19T19:38:19.696Z,18.77
2023-05-19T19:40:48.040Z,13.48
2023-05-19T19:43:16.356Z,10.93
2023-05-19T19:45:44.844Z,8.90
2023-05-19T19:48:14.121Z,7.75
2023-05-19T19:50:46.331Z,9.05
2023-05-19T19:53:15.561Z,8.82
2023-05-19T19:55:45.239Z,9.27
2023-05-19T19:58:13.838Z,9.10
2023-05-19T20:00:42.136Z,9.60
2023-05-19T20:03:10.694Z,9.68
2023-05-19T20:05:39.532Z,11.80
2023-05-19T20:08:08.065Z,9.45
2023-05-19T20:10:36.587Z,10.35
2023-05-19T20:13:06.511Z,10.75
2023-05-19T20:15:34.809Z,9.60
2023-05-19T20:18:03.155Z,10.40
2023-05-19T20:20:31.933Z,10.02
2023-05-19T20:23:00.755Z,10.55
2023-05-19T20:25:29.361Z,8.80
2023-05-19T20:27:57.709Z,8.27
2023-05-19T20:30:28.044Z,7.53
2023-05-19T20:32:56.441Z,7.53
2023-05-19T20:35:25.020Z,7.43
2023-05-19T20:37:53.321Z,7.57
2023-05-19T20:40:22.151Z,7.30
2023-05-19T20:42:50.529Z,7.50
2023-05-19T20:45:19.464Z,7.10
2023-05-19T20:47:49.358Z,9.80
2023-05-19T20:50:18.192Z,14.85
2023-05-19T20:52:46.516Z,10.52
2023-05-19T20:55:15.541Z,8.52
2023-05-19T20:57:44.732Z,9.60
2023-05-19T21:00:14.632Z,7.38
2023-05-19T21:02:43.062Z,7.17
2023-05-19T21:05:13.471Z,7.40
2023-05-19T21:07:42.339Z,6.55
2023-05-19T21:12:42.730Z,6.15
2023-05-19T21:15:12.190Z,6.35
2023-05-19T21:17:41.094Z,6.80
2023-05-19T21:20:10.981Z,6.18
2023-05-19T21:22:40.944Z,6.28
2023-05-19T21:25:10.051Z,6.20
2023-05-19T21:27:39.529Z,5.85
2023-05-19T21:30:09.826Z,5.88
2023-05-19T21:32:38.852Z,7.00
2023-05-19T21:35:07.774Z,6.43
2023-05-19T21:37:36.568Z,6.53
2023-05-19T21:40:07.967Z,9.95
2023-05-19T21:42:36.797Z,6.05
2023-05-19T21:45:06.506Z,6.03
2023-05-19T21:47:35.245Z,6.05
2023-05-19T21:50:03.697Z,5.88
2023-05-19T21:52:32.366Z,5.40
2023-05-19T21:55:00.590Z,5.68
2023-05-19T21:57:30.674Z,5.97
2023-05-19T21:59:58.984Z,6.13
2023-05-19T22:02:28.066Z,5.82
2023-05-19T22:04:56.507Z,5.97
2023-05-19T22:07:27.026Z,5.60
2023-05-19T22:12:24.338Z,5.93
2023-05-19T22:14:54.481Z,6.10
2023-05-19T22:17:23.086Z,5.55
2023-05-19T22:19:51.780Z,5.78
2023-05-19T22:22:20.510Z,5.88
2023-05-19T22:24:48.985Z,5.60
2023-05-19T22:27:17.482Z,6.10
2023-05-19T22:29:46.361Z,5.97
2023-05-19T22:32:18.025Z,5.68
2023-05-19T22:34:46.764Z,5.38
2023-05-19T22:37:15.258Z,5.93
2023-05-19T22:39:43.985Z,5.65
2023-05-19T22:42:12.246Z,6.15
2023-05-19T22:44:40.602Z,5.50
2023-05-19T22:47:13.400Z,5.80
2023-05-19T22:49:43.452Z,5.60
2023-05-19T22:52:12.798Z,5.57
2023-05-19T22:54:41.117Z,5.43
2023-05-19T22:57:09.542Z,5.80
2023-05-19T22:59:38.294Z,6.07
2023-05-19T23:02:06.878Z,5.30
2023-05-19T23:04:37.027Z,5.97
2023-05-19T23:07:06.868Z,5.57
2023-05-19T23:09:35.741Z,6.05
2023-05-19T23:12:04.067Z,6.20
2023-05-19T23:14:33.462Z,5.72
2023-05-19T23:17:03.621Z,5.75
2023-05-19T23:19:33.492Z,5.85
2023-05-19T23:22:01.946Z,6.13
2023-05-19T23:24:32.104Z,6.70
2023-05-19T23:27:00.928Z,5.88
2023-05-19T23:29:29.630Z,5.90
2023-05-19T23:31:58.462Z,5.90
2023-05-19T23:34:26.792Z,7.13
2023-05-19T23:36:56.352Z,7.85
2023-05-19T23:39:25.446Z,6.03
2023-05-19T23:41:56.328Z,5.93
2023-05-19T23:46:53.002Z,5.78
2023-05-19T23:49:21.404Z,5.85
2023-05-19T23:51:50.481Z,5.60
2023-05-19T23:54:18.817Z,5.65
2023-05-19T23:56:47.355Z,5.68
2023-05-19T23:59:17.095Z,5.75
